Data for 09/20/2018

Time Sea-Level Adjusted Pressure Absolute Pressure Temperature Relative Humidity Dew Point   
(mb) (inHg) (mb) (inHg) (C) (F) (%) (C) (F)
00:05 1018 30.06 847 25.01 7.1 44.7 76 3.2 37.7
00:10 1018 30.06 847 25.01 7.1 44.7 76 3.2 37.7
00:15 1018 30.06 847 25.01 7.1 44.7 77 3.2 37.8
00:20 1018 30.06 847 25.01 7.2 44.9 76 3.2 37.8
00:25 1018 30.06 847 25.01 7.3 45.2 76 3.4 38.2
00:30 1018 30.06 847 25.01 7.3 45.2 78 3.8 38.8
00:35 1018 30.06 847 25.01 7.3 45.1 80 4 39.2
00:40 1018 30.06 847 25.01 7.3 45.1 80 4.1 39.3
00:45 1017 30.03 847 25.01 7.3 45.1 80 4.1 39.3
00:50 1017 30.03 847 25.01 7.1 44.8 81 4.1 39.3
00:55 1017 30.03 847 25.01 7 44.7 82 4.2 39.5
01:00 1017 30.03 847 25.01 6.9 44.3 84 4.3 39.8
01:05 1017 30.03 847 25.01 6.8 44.2 85 4.4 39.9
01:10 1017 30.03 846 24.98 6.7 44 86 4.5 40.1
01:15 1017 30.03 846 24.98 6.7 44 87 4.6 40.3
01:20 1017 30.03 846 24.98 6.7 44 88 4.8 40.6
01:25 1017 30.03 846 24.98 6.7 44 88 4.8 40.6
01:30 1017 30.03 846 24.98 6.7 44 88 4.8 40.7
01:35 1017 30.03 846 24.98 6.7 44.1 88 4.8 40.7
01:40 1017 30.03 846 24.98 6.8 44.2 88 4.9 40.8
01:45 1017 30.03 846 24.98 6.8 44.2 88 4.9 40.8
01:50 1017 30.03 846 24.98 6.7 44.1 87 4.8 40.6
01:55 1017 30.03 846 24.98 6.8 44.2 88 4.8 40.7
02:00 1017 30.03 846 24.98 6.8 44.2 88 4.9 40.7
02:05 1017 30.03 846 24.98 6.7 44.1 88 4.9 40.7
02:10 1017 30.03 846 24.98 6.7 44.1 88 4.9 40.9
02:15 1017 30.03 846 24.98 6.8 44.2 88 5 40.9
02:20 1017 30.03 846 24.98 6.8 44.2 88 4.9 40.8
02:25 1017 30.03 846 24.98 6.8 44.2 88 4.9 40.8
02:30 1017 30.03 846 24.98 6.9 44.4 87 4.9 40.8
02:35 1017 30.03 846 24.98 7.1 44.7 87 5.1 41.2
02:40 1017 30.03 846 24.98 7.1 44.8 87 5.1 41.3
02:45 1017 30.03 846 24.98 7.2 44.9 87 5.2 41.3
02:50 1017 30.03 846 24.98 7.2 44.9 87 5.2 41.4
02:55 1017 30.03 846 24.98 7.1 44.7 87 5.1 41.2
03:00 1017 30.03 846 24.98 6.9 44.4 88 5.1 41.1
03:05 1017 30.03 846 24.98 6.9 44.4 88 5.1 41.2
03:10 1017 30.03 846 24.98 6.9 44.4 89 5.2 41.3
03:15 1017 30.03 846 24.98 6.9 44.4 88 5.1 41.1
03:20 1017 30.03 846 24.98 7 44.5 87 5 40.9
03:25 1017 30.03 846 24.98 7.1 44.8 86 4.9 40.8
03:30 1017 30.03 846 24.98 7.2 44.9 84 4.7 40.4
03:35 1017 30.03 846 24.98 7.2 45 83 4.6 40.3
03:40 1017 30.03 846 24.98 7.2 44.9 83 4.5 40.1
03:45 1017 30.03 846 24.98 7.2 44.9 83 4.6 40.2
03:50 1017 30.03 846 24.98 7.2 45 84 4.7 40.4
03:55 1017 30.03 846 24.98 7.2 45 84 4.8 40.6
04:00 1017 30.03 846 24.98 7.2 45 85 4.8 40.7
04:05 1017 30.03 846 24.98 7.2 44.9 85 4.8 40.7
04:10 1017 30.03 846 24.98 7.2 44.9 85 4.9 40.8
04:15 1017 30.03 846 24.98 7.2 45 86 5 41
04:20 1017 30.03 846 24.98 7.2 45 86 5.1 41.1
04:25 1017 30.03 846 24.98 7.2 44.9 87 5.1 41.2
04:30 1017 30.03 846 24.98 7.2 44.9 87 5.2 41.3
04:35 1017 30.03 846 24.98 7.2 44.9 87 5.2 41.4
04:40 1017 30.03 846 24.98 7.2 45 87 5.2 41.4
04:45 1017 30.03 846 24.98 7.2 45 87 5.2 41.4
04:50 1017 30.03 846 24.98 7.2 44.9 87 5.2 41.4
04:55 1017 30.03 846 24.98 7.2 44.9 88 5.3 41.5
05:00 1017 30.03 846 24.98 7.2 44.9 87 5.2 41.4
05:05 1017 30.03 847 25.01 7.1 44.8 88 5.3 41.5
05:10 1017 30.03 847 25.01 7.1 44.8 88 5.3 41.5
05:15 1017 30.03 847 25.01 7.1 44.7 88 5.3 41.5
05:20 1017 30.03 847 25.01 7.1 44.7 89 5.3 41.6
05:25 1018 30.06 847 25.01 7.1 44.7 88 5.3 41.5
05:30 1018 30.06 847 25.01 7.1 44.7 88 5.3 41.5
05:35 1018 30.06 847 25.01 7 44.6 89 5.3 41.5
05:40 1018 30.06 847 25.01 6.9 44.5 89 5.2 41.4
05:45 1018 30.06 847 25.01 6.9 44.5 89 5.3 41.5
05:50 1018 30.06 847 25.01 6.9 44.5 89 5.3 41.5
05:55 1018 30.06 847 25.01 7 44.6 89 5.3 41.6
06:00 1018 30.06 847 25.01 7 44.6 89 5.3 41.5
06:05 1018 30.06 847 25.01 7 44.6 89 5.3 41.6
06:10 1018 30.06 847 25.01 7.1 44.7 89 5.3 41.5
06:15 1018 30.06 847 25.01 7.1 44.7 88 5.3 41.5
06:20 1018 30.06 847 25.01 7.1 44.8 88 5.4 41.6
06:25 1018 30.06 847 25.01 7.2 44.9 88 5.4 41.7
06:30 1018 30.06 847 25.01 7.2 44.9 88 5.4 41.7
06:35 1018 30.06 847 25.01 7.2 44.9 88 5.4 41.7
06:40 1018 30.06 847 25.01 7.2 45 88 5.4 41.8
06:45 1018 30.06 847 25.01 7.3 45.1 88 5.5 41.8
06:50 1018 30.06 847 25.01 7.4 45.4 88 5.6 42
06:55 1018 30.06 847 25.01 7.5 45.4 87 5.5 41.9
07:00 1018 30.06 847 25.01 7.5 45.4 87 5.5 41.9
07:05 1018 30.06 847 25.01 7.4 45.4 87 5.4 41.7
07:10 1018 30.06 847 25.01 7.4 45.3 87 5.4 41.7
07:15 1018 30.06 848 25.04 7.4 45.3 87 5.4 41.7
07:20 1018 30.06 848 25.04 7.4 45.4 87 5.4 41.7
07:25 1018 30.06 848 25.04 7.5 45.5 87 5.5 41.9
07:30 1018 30.06 848 25.04 7.6 45.7 87 5.5 42
07:35 1018 30.06 848 25.04 7.8 46 86 5.6 42.1
07:40 1019 30.09 848 25.04 7.8 46.1 86 5.6 42.1
07:45 1019 30.09 848 25.04 7.9 46.2 84 5.5 41.8
07:50 1019 30.09 848 25.04 7.9 46.2 83 5.2 41.4
07:55 1019 30.09 848 25.04 7.9 46.2 83 5.2 41.4
08:00 1019 30.09 848 25.04 8.3 46.9 81 5.3 41.5
08:05 1019 30.09 848 25.04 8.6 47.6 80 5.4 41.7
08:10 1019 30.09 848 25.04 9 48.1 78 5.3 41.6
08:15 1019 30.09 848 25.04 9.1 48.3 77 5.3 41.6
08:20 1019 30.09 848 25.04 8.6 47.4 80 5.4 41.7
08:25 1019 30.09 848 25.04 8.6 47.4 79 5.1 41.3
08:30 1019 30.09 848 25.04 8.6 47.4 80 5.3 41.6
08:35 1019 30.09 848 25.04 8.8 47.9 79 5.3 41.6
08:40 1019 30.09 848 25.04 8.7 47.6 79 5.2 41.4
08:45 1019 30.09 848 25.04 8.9 48 79 5.4 41.7
08:50 1019 30.09 848 25.04 9.2 48.6 76 5.3 41.5
08:55 1019 30.09 848 25.04 9 48.3 77 5.3 41.5
09:00 1019 30.09 848 25.04 9.1 48.3 77 5.2 41.4
09:05 1019 30.09 848 25.04 9.5 49.1 77 5.8 42.4
09:10 1019 30.09 848 25.04 9.9 49.7 75 5.7 42.2
09:15 1019 30.09 848 25.04 9.8 49.6 74 5.4 41.8
09:20 1019 30.09 849 25.07 9.5 49 77 5.7 42.2
09:25 1019 30.09 849 25.07 9.5 49.1 77 5.7 42.2
09:30 1019 30.09 849 25.07 9.8 49.6 75 5.6 42.2
09:35 1019 30.09 849 25.07 10.2 50.3 73 5.5 42
09:40 1020 30.12 849 25.07 10.1 50.2 72 5.4 41.7
09:45 1020 30.12 849 25.07 10.1 50.2 74 5.6 42.1
09:50 1020 30.12 849 25.07 10.1 50.2 74 5.6 42.2
09:55 1020 30.12 849 25.07 10 50 73 5.5 41.9
10:00 1020 30.12 849 25.07 10.1 50.1 73 5.4 41.8
10:05 1020 30.12 849 25.07 10.3 50.6 69 5 41
10:10 1020 30.12 849 25.07 10.9 51.7 68 5.3 41.5
10:15 1020 30.12 849 25.07 11.4 52.4 69 5.9 42.7
10:20 1020 30.12 849 25.07 11.2 52.2 67 5.4 41.8
10:25 1020 30.12 849 25.07 11 51.8 68 5.3 41.6
10:30 1020 30.12 849 25.07 11.3 52.3 66 5.1 41.3
10:35 1020 30.12 849 25.07 11.3 52.4 67 5.4 41.7
10:40 1020 30.12 849 25.07 11.5 52.7 66 5.4 41.7
10:45 1020 30.12 849 25.07 11.1 51.9 67 5.2 41.4
10:50 1020 30.12 849 25.07 11.2 52.1 65 4.8 40.6
10:55 1020 30.12 849 25.07 11.3 52.4 64 4.7 40.5
11:00 1020 30.12 849 25.07 11.3 52.3 63 4.6 40.2
11:05 1020 30.12 849 25.07 11.2 52.1 63 4.5 40.1
11:10 1020 30.12 849 25.07 11.2 52.1 63 4.4 40
11:15 1020 30.12 849 25.07 12 53.6 58 4 39.3
11:20 1019 30.09 849 25.07 12.9 55.2 55 4.2 39.6
11:25 1020 30.12 849 25.07 12.8 55 57 4.4 40
11:30 1020 30.12 849 25.07 12.2 53.9 55 3.4 38.1
11:35 1019 30.09 849 25.07 12.2 54 55 3.5 38.3
11:40 1019 30.09 849 25.07 12.5 54.5 51 2.7 36.8
11:45 1019 30.09 849 25.07 12.6 54.7 50 2.6 36.7
11:50 1019 30.09 849 25.07 12.6 54.7 51 2.8 37
11:55 1019 30.09 849 25.07 13.3 55.9 47 2.2 35.9
12:00 1019 30.09 849 25.07 14.1 57.3 46 2.9 37.1
12:05 1019 30.09 849 25.07 14.2 57.6 45 2.5 36.4
12:10 1019 30.09 849 25.07 14.4 57.8 43 2.1 35.8
12:15 1020 30.12 849 25.07 14 57.1 46 2.7 36.9
12:20 1019 30.09 849 25.07 14 57.3 43 1.7 35.1
12:25 1019 30.09 849 25.07 13.9 57.1 43 1.6 34.9
12:30 1019 30.09 849 25.07 13.3 55.9 42 0.6 33.1
12:35 1019 30.09 849 25.07 13.6 56.5 41 0.8 33.4
12:40 1020 30.12 849 25.07 14.1 57.4 41 1.2 34.2
12:45 1019 30.09 849 25.07 14.4 57.8 41 1.3 34.3
12:50 1019 30.09 849 25.07 14.6 58.2 40 1.3 34.4
12:55 1019 30.09 849 25.07 14.2 57.6 39 0.6 33
13:00 1019 30.09 849 25.07 14.2 57.6 40 1 33.8
13:05 1019 30.09 849 25.07 14.5 58.1 39 0.7 33.3
13:10 1019 30.09 849 25.07 14.7 58.5 40 1.2 34.2
13:15 1019 30.09 849 25.07 14.4 58 38 0.5 32.9
13:20 1019 30.09 849 25.07 14.1 57.5 36 -0.5 31.1
13:25 1019 30.09 849 25.07 14 57.2 34 -1.5 29.3
13:30 1019 30.09 849 25.07 14.6 58.3 33 -1.3 29.7
13:35 1019 30.09 849 25.07 15.5 59.9 37 0.9 33.6
13:40 1019 30.09 849 25.07 14.1 57.4 39 0.6 33
13:45 1020 30.12 849 25.07 13.5 56.2 43 1.2 34.1
13:50 1019 30.09 849 25.07 13 55.3 47 1.9 35.3
13:55 1019 30.09 849 25.07 12.5 54.6 47 1.5 34.7
14:00 1019 30.09 849 25.07 12.5 54.5 47 1.7 35
14:05 1019 30.09 849 25.07 12.6 54.6 48 1.9 35.4
14:10 1019 30.09 849 25.07 12.8 55.1 44 0.8 33.4
14:15 1019 30.09 849 25.07 13.1 55.6 41 0.3 32.5
14:20 1019 30.09 849 25.07 13.3 55.9 43 0.9 33.6
14:25 1019 30.09 849 25.07 13.4 56.2 48 2.6 36.7
14:30 1020 30.12 849 25.07 13.7 56.6 45 2.2 35.9
14:35 1019 30.09 849 25.07 13.8 56.9 43 1.6 34.8
14:40 1019 30.09 849 25.07 13.9 57 43 1.7 35
14:45 1019 30.09 849 25.07 14.2 57.5 41 1.3 34.4
14:50 1019 30.09 849 25.07 14.1 57.5 41 1.3 34.3
14:55 1020 30.12 849 25.07 14.2 57.6 40 0.9 33.7
15:00 1020 30.12 849 25.07 14.1 57.5 41 1.1 34
15:05 1020 30.12 849 25.07 14.2 57.5 38 0 32.1
15:10 1020 30.12 849 25.07 14 57.2 38 -0 32
15:15 1020 30.12 849 25.07 13.8 56.9 38 -0.2 31.6
15:20 1020 30.12 849 25.07 14.1 57.3 36 -0.6 30.9
15:25 1020 30.12 849 25.07 14.3 57.7 35 -1.1 30.1
15:30 1020 30.12 849 25.07 14.8 58.7 32 -1.7 28.9
15:35 1020 30.12 849 25.07 15.4 59.6 30 -2 28.4
15:40 1019 30.09 849 25.07 15.6 60.1 30 -2 28.3
15:45 1019 30.09 849 25.07 16.2 61.1 31 -1 30.2
15:50 1020 30.12 849 25.07 15.8 60.4 31 -1.4 29.5
15:55 1020 30.12 849 25.07 15.4 59.7 31 -1.5 29.3
16:00 1020 30.12 849 25.07 15.5 60 30 -1.7 29
16:05 1020 30.12 849 25.07 16 60.9 29 -2.1 28.3
16:10 1020 30.12 849 25.07 16.3 61.3 27 -2.6 27.3
16:15 1020 30.12 849 25.07 16.3 61.4 29 -1.9 28.6
16:20 1020 30.12 849 25.07 16.3 61.3 29 -1.5 29.4
16:25 1020 30.12 849 25.07 15.8 60.5 30 -1.8 28.8
16:30 1020 30.12 849 25.07 15.6 60.1 31 -1.6 29.2
16:35 1020 30.12 849 25.07 15.5 60 30 -1.7 29
16:40 1020 30.12 849 25.07 15.1 59.1 31 -2 28.4
16:45 1020 30.12 849 25.07 15.2 59.4 30 -2.3 27.8
16:50 1020 30.12 849 25.07 15.5 59.8 30 -1.8 28.8
16:55 1020 30.12 849 25.07 15.2 59.3 31 -1.8 28.8
17:00 1020 30.12 849 25.07 15.5 59.9 30 -1.9 28.5
17:05 1020 30.12 849 25.07 15.9 60.6 29 -1.9 28.7
17:10 1020 30.12 849 25.07 16 60.7 28 -2.2 28
17:15 1020 30.12 849 25.07 16.1 61 27 -2.6 27.3
17:20 1020 30.12 849 25.07 16 60.8 29 -2 28.4
17:25 1020 30.12 849 25.07 15.7 60.2 29 -2.1 28.2
17:30 1020 30.12 849 25.07 15.2 59.4 30 -2.1 28.2
17:35 1020 30.12 849 25.07 15 59 30 -2.5 27.6
17:40 1020 30.12 849 25.07 14.9 58.7 31 -2.2 28.1
17:45 1020 30.12 849 25.07 14.7 58.5 30 -2.4 27.6
17:50 1020 30.12 849 25.07 14.6 58.2 31 -2.3 27.8
17:55 1020 30.12 849 25.07 14.4 57.8 31 -2.3 27.9
18:00 1020 30.12 849 25.07 14.2 57.6 31 -2.4 27.7
18:05 1020 30.12 849 25.07 14.1 57.4 32 -2.5 27.6
18:10 1020 30.12 849 25.07 13.9 57 32 -2.3 27.8
18:15 1020 30.12 849 25.07 13.7 56.7 33 -2 28.3
18:20 1020 30.12 849 25.07 13.5 56.3 33 -2.4 27.6
18:25 1020 30.12 849 25.07 13.3 55.9 35 -1.7 28.9
18:30 1020 30.12 849 25.07 13.1 55.5 35 -2.2 28.1
18:35 1020 30.12 850 25.1 12.8 55 37 -1.6 29.1
18:40 1020 30.12 850 25.1 12.3 54.2 44 0.4 32.7
18:45 1021 30.15 850 25.1 11.5 52.7 46 0.4 32.7
18:50 1021 30.15 850 25.1 11.3 52.3 46 0.2 32.3
18:55 1021 30.15 850 25.1 11.3 52.4 41 -1.3 29.7
19:00 1021 30.15 850 25.1 11.6 52.8 47 0.6 33
19:05 1021 30.15 850 25.1 10.7 51.2 51 0.9 33.6
19:10 1021 30.15 850 25.1 10 50 54 1.2 34.1
19:15 1021 30.15 850 25.1 9.6 49.2 55 1.1 34
19:20 1021 30.15 850 25.1 9.4 48.9 56 1 33.8
19:25 1021 30.15 850 25.1 9.3 48.8 55 0.9 33.6
19:30 1021 30.15 850 25.1 9.2 48.6 56 1 33.9
19:35 1021 30.15 850 25.1 9.1 48.3 57 1.1 34
19:40 1021 30.15 851 25.13 8.9 48 57 0.9 33.6
19:45 1021 30.15 851 25.13 8.8 47.8 57 0.9 33.6
19:50 1021 30.15 850 25.1 8.7 47.7 58 0.9 33.6
19:55 1021 30.15 851 25.13 8.7 47.6 58 0.8 33.5
20:00 1021 30.15 851 25.13 8.6 47.5 58 0.8 33.5
20:05 1021 30.15 851 25.13 8.6 47.4 57 0.6 33
20:10 1022 30.18 851 25.13 8.5 47.3 57 0.6 33
20:15 1022 30.18 851 25.13 8.3 47 60 0.9 33.7
20:20 1022 30.18 851 25.13 7.7 45.8 62 0.9 33.6
20:25 1022 30.18 851 25.13 7.5 45.4 58 -0.1 31.8
20:30 1022 30.18 851 25.13 7.7 45.8 56 -0.7 30.8
20:35 1022 30.18 851 25.13 8 46.4 54 -0.8 30.6
20:40 1022 30.18 851 25.13 8.1 46.5 52 -1.1 30.1
20:45 1022 30.18 851 25.13 8.1 46.6 53 -1 30.3
20:50 1022 30.18 851 25.13 8 46.4 55 -0.4 31.2
20:55 1022 30.18 851 25.13 7.6 45.7 55 -0.7 30.7
21:00 1022 30.18 851 25.13 7.5 45.5 56 -0.8 30.6
21:05 1022 30.18 851 25.13 7.5 45.5 56 -0.8 30.6
21:10 1022 30.18 851 25.13 7.5 45.5 55 -0.8 30.5
21:15 1022 30.18 851 25.13 7.5 45.5 55 -0.9 30.4
21:20 1022 30.18 851 25.13 7.5 45.5 55 -0.9 30.3
21:25 1022 30.18 851 25.13 7.6 45.6 55 -0.8 30.5
21:30 1022 30.18 851 25.13 7.6 45.7 55 -0.8 30.5
21:35 1022 30.18 851 25.13 7.6 45.6 56 -0.7 30.8
21:40 1022 30.18 852 25.16 7.5 45.4 56 -0.7 30.7
21:45 1022 30.18 852 25.16 7.3 45.1 57 -0.7 30.8
21:50 1022 30.18 851 25.13 7 44.6 57 -0.9 30.4
21:55 1022 30.18 851 25.13 6.9 44.3 57 -1 30.2
22:00 1022 30.18 852 25.16 6.8 44.2 58 -1 30.3
22:05 1022 30.18 852 25.16 6.8 44.2 57 -1 30.2
22:10 1022 30.18 852 25.16 6.7 44.1 58 -0.9 30.3
22:15 1022 30.18 852 25.16 7.1 44.7 56 -1 30.2
22:20 1022 30.18 852 25.16 7.1 44.8 57 -0.9 30.5
22:25 1022 30.18 852 25.16 6.9 44.5 58 -0.8 30.5
22:30 1023 30.21 852 25.16 6.8 44.2 58 -0.9 30.4
22:35 1023 30.21 852 25.16 6.8 44.2 58 -0.9 30.4
22:40 1023 30.21 852 25.16 6.7 44 58 -1 30.2
22:45 1023 30.21 852 25.16 6.7 44.1 57 -1.1 30
22:50 1023 30.21 852 25.16 6.9 44.4 56 -1.2 29.9
22:55 1023 30.21 852 25.16 7 44.5 56 -1.3 29.7
23:00 1023 30.21 852 25.16 6.9 44.4 56 -1.4 29.5
23:05 1023 30.21 852 25.16 7.1 44.9 54 -1.5 29.3
23:10 1023 30.21 852 25.16 7.1 44.7 55 -1.4 29.4
23:15 1023 30.21 852 25.16 7 44.6 55 -1.3 29.6
23:20 1023 30.21 852 25.16 6.7 44.1 56 -1.3 29.6
23:25 1023 30.21 852 25.16 6.6 43.9 56 -1.6 29.2
23:30 1023 30.21 852 25.16 6.7 44.1 55 -1.7 29
23:35 1023 30.21 852 25.16 6.8 44.2 55 -1.6 29.2
23:40 1023 30.21 852 25.16 6.7 44 56 -1.5 29.3
23:45 1023 30.21 852 25.16 6.6 44 56 -1.6 29.2
23:50 1023 30.21 852 25.16 6.7 44 56 -1.5 29.3
23:55 1023 30.21 852 25.16 6.8 44.2 56 -1.5 29.4
24:00 1023 30.21 852 25.16 6.8 44.2 56 -1.4 29.6